sensor_id;sensor_type;location;lat;lon;timestamp;temperature;humidity
12164;DHT22;6145;50.192;10.064;2023-04-01T00:01:39;10.10;93.10
12164;DHT22;6145;50.192;10.064;2023-04-01T00:04:21;10.80;93.50
12164;DHT22;6145;50.192;10.064;2023-04-01T00:06:53;10.00;93.30
12164;DHT22;6145;50.192;10.064;2023-04-01T00:09:20;10.00;93.30
12164;DHT22;6145;50.192;10.064;2023-04-01T00:11:50;10.00;93.40
12164;DHT22;6145;50.192;10.064;2023-04-01T00:14:20;10.00;93.40
12164;DHT22;6145;50.192;10.064;2023-04-01T00:16:47;10.00;93.40
12164;DHT22;6145;50.192;10.064;2023-04-01T00:19:14;9.90;94.00
12164;DHT22;6145;50.192;10.064;2023-04-01T00:21:42;9.90;94.10
12164;DHT22;6145;50.192;10.064;2023-04-01T00:24:09;9.90;94.10
12164;DHT22;6145;50.192;10.064;2023-04-01T00:26:38;9.90;94.20
12164;DHT22;6145;50.192;10.064;2023-04-01T00:29:09;9.90;94.30
12164;DHT22;6145;50.192;10.064;2023-04-01T00:31:36;9.90;94.30
12164;DHT22;6145;50.192;10.064;2023-04-01T00:34:04;9.90;94.30
12164;DHT22;6145;50.192;10.064;2023-04-01T00:36:31;9.90;94.30
12164;DHT22;6145;50.192;10.064;2023-04-01T00:39:01;9.90;94.40
12164;DHT22;6145;50.192;10.064;2023-04-01T00:41:28;9.90;94.30
12164;DHT22;6145;50.192;10.064;2023-04-01T00:44:19;9.90;94.40
12164;DHT22;6145;50.192;10.064;2023-04-01T00:46:49;9.90;94.40
12164;DHT22;6145;50.192;10.064;2023-04-01T00:49:19;9.90;94.40
12164;DHT22;6145;50.192;10.064;2023-04-01T00:51:55;9.90;94.40
12164;DHT22;6145;50.192;10.064;2023-04-01T00:54:28;9.90;94.50
12164;DHT22;6145;50.192;10.064;2023-04-01T00:57:00;10.00;94.00
12164;DHT22;6145;50.192;10.064;2023-04-01T00:59:44;10.00;93.90
12164;DHT22;6145;50.192;10.064;2023-04-01T01:02:16;10.00;93.90
12164;DHT22;6145;50.192;10.064;2023-04-01T01:05:30;10.00;93.80
12164;DHT22;6145;50.192;10.064;2023-04-01T01:08:41;9.90;94.30
12164;DHT22;6145;50.192;10.064;2023-04-01T01:14:29;9.90;94.40
12164;DHT22;6145;50.192;10.064;2023-04-01T01:17:04;9.90;94.30
12164;DHT22;6145;50.192;10.064;2023-04-01T01:22:52;9.80;94.30
12164;DHT22;6145;50.192;10.064;2023-04-01T01:25:33;10.20;94.00
12164;DHT22;6145;50.192;10.064;2023-04-01T01:28:30;9.90;94.40
12164;DHT22;6145;50.192;10.064;2023-04-01T01:31:07;9.80;94.30
12164;DHT22;6145;50.192;10.064;2023-04-01T01:33:50;9.80;94.20
12164;DHT22;6145;50.192;10.064;2023-04-01T01:36:30;9.90;94.30
12164;DHT22;6145;50.192;10.064;2023-04-01T01:39:01;9.90;94.20
12164;DHT22;6145;50.192;10.064;2023-04-01T01:41:29;9.90;94.20
12164;DHT22;6145;50.192;10.064;2023-04-01T01:43:58;9.90;94.20
12164;DHT22;6145;50.192;10.064;2023-04-01T01:46:28;9.90;94.00
12164;DHT22;6145;50.192;10.064;2023-04-01T01:49:03;9.90;93.90
12164;DHT22;6145;50.192;10.064;2023-04-01T01:51:33;9.90;93.80
12164;DHT22;6145;50.192;10.064;2023-04-01T01:54:01;9.90;93.80
12164;DHT22;6145;50.192;10.064;2023-04-01T01:56:29;9.90;93.80
12164;DHT22;6145;50.192;10.064;2023-04-01T01:59:24;9.90;93.80
12164;DHT22;6145;50.192;10.064;2023-04-01T02:01:56;10.40;93.50
12164;DHT22;6145;50.192;10.064;2023-04-01T02:04:25;9.90;93.60
12164;DHT22;6145;50.192;10.064;2023-04-01T02:06:58;9.90;93.50
12164;DHT22;6145;50.192;10.064;2023-04-01T02:09:27;9.90;93.60
12164;DHT22;6145;50.192;10.064;2023-04-01T02:11:58;9.90;93.60
12164;DHT22;6145;50.192;10.064;2023-04-01T02:14:30;9.90;93.60
12164;DHT22;6145;50.192;10.064;2023-04-01T02:17:05;9.80;93.60
12164;DHT22;6145;50.192;10.064;2023-04-01T02:26:07;9.80;93.60
12164;DHT22;6145;50.192;10.064;2023-04-01T02:28:37;9.80;93.50
12164;DHT22;6145;50.192;10.064;2023-04-01T02:31:13;9.80;93.60
12164;DHT22;6145;50.192;10.064;2023-04-01T02:33:52;9.80;93.40
12164;DHT22;6145;50.192;10.064;2023-04-01T02:36:20;9.70;93.50
12164;DHT22;6145;50.192;10.064;2023-04-01T02:38:48;9.80;93.60
12164;DHT22;6145;50.192;10.064;2023-04-01T02:41:18;9.80;93.90
12164;DHT22;6145;50.192;10.064;2023-04-01T02:43:46;9.80;93.50
12164;DHT22;6145;50.192;10.064;2023-04-01T02:46:14;9.80;93.40
12164;DHT22;6145;50.192;10.064;2023-04-01T02:48:41;9.80;93.50
12164;DHT22;6145;50.192;10.064;2023-04-01T02:51:08;9.80;93.30
12164;DHT22;6145;50.192;10.064;2023-04-01T02:53:36;9.80;93.30
12164;DHT22;6145;50.192;10.064;2023-04-01T02:56:04;9.80;93.40
12164;DHT22;6145;50.192;10.064;2023-04-01T02:58:35;9.80;93.40
12164;DHT22;6145;50.192;10.064;2023-04-01T03:01:02;9.80;93.40
12164;DHT22;6145;50.192;10.064;2023-04-01T03:03:29;9.70;93.30
12164;DHT22;6145;50.192;10.064;2023-04-01T03:05:56;9.80;93.50
12164;DHT22;6145;50.192;10.064;2023-04-01T03:08:36;9.70;93.30
12164;DHT22;6145;50.192;10.064;2023-04-01T03:11:12;9.70;93.40
12164;DHT22;6145;50.192;10.064;2023-04-01T03:13:43;9.70;93.40
12164;DHT22;6145;50.192;10.064;2023-04-01T03:16:14;9.70;93.50
12164;DHT22;6145;50.192;10.064;2023-04-01T03:18:41;9.70;93.50
12164;DHT22;6145;50.192;10.064;2023-04-01T03:21:13;9.70;93.50
12164;DHT22;6145;50.192;10.064;2023-04-01T03:23:41;9.70;93.60
12164;DHT22;6145;50.192;10.064;2023-04-01T03:26:08;9.70;93.50
12164;DHT22;6145;50.192;10.064;2023-04-01T03:31:35;10.00;93.20
12164;DHT22;6145;50.192;10.064;2023-04-01T03:34:03;9.70;93.40
12164;DHT22;6145;50.192;10.064;2023-04-01T03:36:32;9.70;93.50
12164;DHT22;6145;50.192;10.064;2023-04-01T03:39:13;9.70;93.60
12164;DHT22;6145;50.192;10.064;2023-04-01T03:41:47;9.70;93.50
12164;DHT22;6145;50.192;10.064;2023-04-01T03:44:36;9.60;93.60
12164;DHT22;6145;50.192;10.064;2023-04-01T03:47:30;9.70;93.60
12164;DHT22;6145;50.192;10.064;2023-04-01T03:49:59;9.70;93.60
12164;DHT22;6145;50.192;10.064;2023-04-01T03:52:26;9.70;93.50
12164;DHT22;6145;50.192;10.064;2023-04-01T03:54:53;9.60;93.40
12164;DHT22;6145;50.192;10.064;2023-04-01T03:57:21;9.70;93.50
12164;DHT22;6145;50.192;10.064;2023-04-01T03:59:49;9.60;93.40
12164;DHT22;6145;50.192;10.064;2023-04-01T04:02:19;9.70;93.50
12164;DHT22;6145;50.192;10.064;2023-04-01T04:05:01;9.70;93.50
12164;DHT22;6145;50.192;10.064;2023-04-01T04:07:40;9.70;93.40
12164;DHT22;6145;50.192;10.064;2023-04-01T04:10:08;9.70;93.20
12164;DHT22;6145;50.192;10.064;2023-04-01T04:12:36;9.70;93.20
12164;DHT22;6145;50.192;10.064;2023-04-01T04:15:06;9.70;93.10
12164;DHT22;6145;50.192;10.064;2023-04-01T04:17:33;9.70;93.20
12164;DHT22;6145;50.192;10.064;2023-04-01T04:20:08;9.70;93.10
12164;DHT22;6145;50.192;10.064;2023-04-01T04:23:07;9.70;93.00
12164;DHT22;6145;50.192;10.064;2023-04-01T04:25:38;9.50;92.90
12164;DHT22;6145;50.192;10.064;2023-04-01T04:28:38;9.70;92.90
12164;DHT22;6145;50.192;10.064;2023-04-01T04:31:18;9.60;93.00
12164;DHT22;6145;50.192;10.064;2023-04-01T04:33:47;9.60;93.00
12164;DHT22;6145;50.192;10.064;2023-04-01T04:36:36;9.60;92.90
12164;DHT22;6145;50.192;10.064;2023-04-01T04:39:13;9.80;93.10
12164;DHT22;6145;50.192;10.064;2023-04-01T04:41:40;9.70;93.00
12164;DHT22;6145;50.192;10.064;2023-04-01T04:44:08;9.70;93.00
12164;DHT22;6145;50.192;10.064;2023-04-01T04:46:36;9.70;92.90
12164;DHT22;6145;50.192;10.064;2023-04-01T04:49:04;9.70;92.60
12164;DHT22;6145;50.192;10.064;2023-04-01T04:51:32;9.70;92.80
12164;DHT22;6145;50.192;10.064;2023-04-01T04:54:13;9.70;92.70
12164;DHT22;6145;50.192;10.064;2023-04-01T04:56:58;9.70;92.90
12164;DHT22;6145;50.192;10.064;2023-04-01T04:59:38;9.60;92.80
12164;DHT22;6145;50.192;10.064;2023-04-01T05:02:06;9.60;92.90
12164;DHT22;6145;50.192;10.064;2023-04-01T05:04:35;9.70;93.00
12164;DHT22;6145;50.192;10.064;2023-04-01T05:07:02;9.70;93.00
12164;DHT22;6145;50.192;10.064;2023-04-01T05:09:32;9.60;92.90
12164;DHT22;6145;50.192;10.064;2023-04-01T05:12:18;9.60;93.10
12164;DHT22;6145;50.192;10.064;2023-04-01T05:15:07;9.60;93.10
12164;DHT22;6145;50.192;10.064;2023-04-01T05:17:48;9.60;93.20
12164;DHT22;6145;50.192;10.064;2023-04-01T05:20:15;9.60;93.30
12164;DHT22;6145;50.192;10.064;2023-04-01T05:22:45;9.50;93.20
12164;DHT22;6145;50.192;10.064;2023-04-01T05:25:13;9.30;93.40
12164;DHT22;6145;50.192;10.064;2023-04-01T05:27:40;9.50;93.60
12164;DHT22;6145;50.192;10.064;2023-04-01T05:30:08;9.40;93.70
12164;DHT22;6145;50.192;10.064;2023-04-01T05:32:38;9.40;93.80
12164;DHT22;6145;50.192;10.064;2023-04-01T05:35:08;9.40;93.80
12164;DHT22;6145;50.192;10.064;2023-04-01T05:37:37;9.40;93.80
12164;DHT22;6145;50.192;10.064;2023-04-01T05:40:06;9.40;93.90
12164;DHT22;6145;50.192;10.064;2023-04-01T05:42:34;9.50;94.20
12164;DHT22;6145;50.192;10.064;2023-04-01T05:45:05;9.40;94.10
12164;DHT22;6145;50.192;10.064;2023-04-01T05:47:34;9.40;94.30
12164;DHT22;6145;50.192;10.064;2023-04-01T05:50:05;9.30;94.30
12164;DHT22;6145;50.192;10.064;2023-04-01T05:52:45;9.30;94.30
12164;DHT22;6145;50.192;10.064;2023-04-01T05:55:26;9.40;94.40
12164;DHT22;6145;50.192;10.064;2023-04-01T05:57:54;9.40;94.40
12164;DHT22;6145;50.192;10.064;2023-04-01T06:00:23;9.40;94.40
12164;DHT22;6145;50.192;10.064;2023-04-01T06:03:11;9.40;94.50
12164;DHT22;6145;50.192;10.064;2023-04-01T06:05:44;9.40;94.70
12164;DHT22;6145;50.192;10.064;2023-04-01T06:08:37;9.30;94.60
12164;DHT22;6145;50.192;10.064;2023-04-01T06:11:37;9.30;94.70
12164;DHT22;6145;50.192;10.064;2023-04-01T06:14:32;9.40;94.80
12164;DHT22;6145;50.192;10.064;2023-04-01T06:17:25;9.30;94.90
12164;DHT22;6145;50.192;10.064;2023-04-01T06:20:31;9.30;95.00
12164;DHT22;6145;50.192;10.064;2023-04-01T06:26:37;9.40;95.10
12164;DHT22;6145;50.192;10.064;2023-04-01T06:32:31;9.40;95.30
12164;DHT22;6145;50.192;10.064;2023-04-01T06:42:29;9.40;95.80
12164;DHT22;6145;50.192;10.064;2023-04-01T06:45:18;9.40;95.60
12164;DHT22;6145;50.192;10.064;2023-04-01T06:51:24;9.30;95.70
12164;DHT22;6145;50.192;10.064;2023-04-01T08:00:44;9.70;96.80
12164;DHT22;6145;50.192;10.064;2023-04-01T08:03:33;9.70;96.80
12164;DHT22;6145;50.192;10.064;2023-04-01T08:06:20;9.80;96.80
12164;DHT22;6145;50.192;10.064;2023-04-01T08:12:07;9.80;96.90
12164;DHT22;6145;50.192;10.064;2023-04-01T08:14:41;9.80;96.90
12164;DHT22;6145;50.192;10.064;2023-04-01T08:17:16;9.90;96.90
12164;DHT22;6145;50.192;10.064;2023-04-01T08:20:01;9.90;96.80
12164;DHT22;6145;50.192;10.064;2023-04-01T08:25:29;9.90;96.90
12164;DHT22;6145;50.192;10.064;2023-04-01T08:28:25;9.90;96.90
12164;DHT22;6145;50.192;10.064;2023-04-01T08:31:28;9.90;96.80
12164;DHT22;6145;50.192;10.064;2023-04-01T08:34:01;10.00;96.50
12164;DHT22;6145;50.192;10.064;2023-04-01T08:36:42;10.00;96.50
12164;DHT22;6145;50.192;10.064;2023-04-01T08:39:34;10.00;96.20
12164;DHT22;6145;50.192;10.064;2023-04-01T08:42:42;10.10;96.30
12164;DHT22;6145;50.192;10.064;2023-04-01T08:45:47;9.90;96.50
12164;DHT22;6145;50.192;10.064;2023-04-01T08:48:40;10.10;96.20
12164;DHT22;6145;50.192;10.064;2023-04-01T08:51:35;10.10;96.20
12164;DHT22;6145;50.192;10.064;2023-04-01T08:57:15;10.20;96.20
12164;DHT22;6145;50.192;10.064;2023-04-01T08:59:59;10.20;96.20
12164;DHT22;6145;50.192;10.064;2023-04-01T09:02:51;10.20;96.20
12164;DHT22;6145;50.192;10.064;2023-04-01T09:06:00;10.20;96.20
12164;DHT22;6145;50.192;10.064;2023-04-01T09:15:37;10.20;96.30
12164;DHT22;6145;50.192;10.064;2023-04-01T09:21:46;10.20;96.20
12164;DHT22;6145;50.192;10.064;2023-04-01T09:27:54;9.50;96.40
12164;DHT22;6145;50.192;10.064;2023-04-01T09:30:54;10.20;96.20
12164;DHT22;6145;50.192;10.064;2023-04-01T09:58:18;10.20;96.70
12164;DHT22;6145;50.192;10.064;2023-04-01T10:04:30;10.30;96.80
12164;DHT22;6145;50.192;10.064;2023-04-01T11:39:28;11.50;97.70
12164;DHT22;6145;50.192;10.064;2023-04-01T11:42:38;11.60;97.70
12164;DHT22;6145;50.192;10.064;2023-04-01T11:45:33;11.60;97.70
12164;DHT22;6145;50.192;10.064;2023-04-01T11:48:32;11.70;97.70
12164;DHT22;6145;50.192;10.064;2023-04-01T11:51:32;11.40;97.20
12164;DHT22;6145;50.192;10.064;2023-04-01T11:54:18;11.70;97.20
12164;DHT22;6145;50.192;10.064;2023-04-01T12:00:26;11.70;97.20
12164;DHT22;6145;50.192;10.064;2023-04-01T12:03:18;12.20;97.50
12164;DHT22;6145;50.192;10.064;2023-04-01T12:06:05;11.80;97.10
12164;DHT22;6145;50.192;10.064;2023-04-01T12:15:42;11.90;97.10
12164;DHT22;6145;50.192;10.064;2023-04-01T12:18:30;11.80;96.90
12164;DHT22;6145;50.192;10.064;2023-04-01T12:21:24;11.80;97.10
12164;DHT22;6145;50.192;10.064;2023-04-01T12:24:29;11.80;97.00
12164;DHT22;6145;50.192;10.064;2023-04-01T12:27:16;11.90;97.10
12164;DHT22;6145;50.192;10.064;2023-04-01T12:30:09;11.90;97.10
12164;DHT22;6145;50.192;10.064;2023-04-01T12:32:49;11.90;97.00
12164;DHT22;6145;50.192;10.064;2023-04-01T12:35:27;11.90;96.90
12164;DHT22;6145;50.192;10.064;2023-04-01T12:38:13;11.90;97.00
12164;DHT22;6145;50.192;10.064;2023-04-01T12:41:09;12.00;97.10
12164;DHT22;6145;50.192;10.064;2023-04-01T12:47:16;11.90;96.90
12164;DHT22;6145;50.192;10.064;2023-04-01T12:50:19;11.90;97.00
12164;DHT22;6145;50.192;10.064;2023-04-01T12:53:07;11.90;97.30
12164;DHT22;6145;50.192;10.064;2023-04-01T12:55:39;11.90;97.20
12164;DHT22;6145;50.192;10.064;2023-04-01T13:01:31;12.00;97.50
12164;DHT22;6145;50.192;10.064;2023-04-01T13:04:20;12.30;97.40
12164;DHT22;6145;50.192;10.064;2023-04-01T13:07:21;12.00;97.20
12164;DHT22;6145;50.192;10.064;2023-04-01T13:09:58;11.80;97.30
12164;DHT22;6145;50.192;10.064;2023-04-01T13:13:09;12.00;97.30
12164;DHT22;6145;50.192;10.064;2023-04-01T13:15:49;12.00;97.40
12164;DHT22;6145;50.192;10.064;2023-04-01T13:18:29;12.00;97.30
12164;DHT22;6145;50.192;10.064;2023-04-01T13:24:28;12.10;97.50
12164;DHT22;6145;50.192;10.064;2023-04-01T13:27:17;12.00;97.50
12164;DHT22;6145;50.192;10.064;2023-04-01T13:30:18;12.00;97.40
12164;DHT22;6145;50.192;10.064;2023-04-01T13:32:57;12.00;97.40
12164;DHT22;6145;50.192;10.064;2023-04-01T13:35:39;12.00;97.50
12164;DHT22;6145;50.192;10.064;2023-04-01T13:38:38;12.00;97.60
12164;DHT22;6145;50.192;10.064;2023-04-01T13:41:25;12.10;97.60
12164;DHT22;6145;50.192;10.064;2023-04-01T13:44:09;12.10;97.30
12164;DHT22;6145;50.192;10.064;2023-04-01T13:50:05;12.10;97.30
12164;DHT22;6145;50.192;10.064;2023-04-01T13:56:11;12.20;97.60
12164;DHT22;6145;50.192;10.064;2023-04-01T14:06:20;12.00;97.00
12164;DHT22;6145;50.192;10.064;2023-04-01T14:12:09;12.00;97.10
12164;DHT22;6145;50.192;10.064;2023-04-01T14:15:00;12.00;97.20
12164;DHT22;6145;50.192;10.064;2023-04-01T14:18:10;12.10;97.40
12164;DHT22;6145;50.192;10.064;2023-04-01T14:21:02;12.00;97.20
12164;DHT22;6145;50.192;10.064;2023-04-01T14:24:35;12.10;97.30
